Time;durP1;ratioP1;P1;durP2;ratioP2;P2;SDS_P1;SDS_P2;PMS_P1;PMS_P2;Temp;Humidity;BMP_temperature;BMP_pressure;BME280_temperature;BME280_humidity;BME280_pressure;Samples;Min_cycle;Max_cycle;Signal;HPM_P1;HPM_P2
2023/11/16 00:02:01;;;;;;;;;11.00;10.00;;;;;12.69;100.00;98579.06;6199365;28;96550;-65
2023/11/16 00:05:05;;;;;;;;;7.00;7.00;;;;;12.68;100.00;98575.53;6188881;28;96564;-66
2023/11/16 00:08:10;;;;;;;;;8.00;8.00;;;;;12.67;100.00;98570.38;6201306;28;96880;-65
2023/11/16 00:11:13;;;;;;;;;7.00;7.00;;;;;12.64;100.00;98574.41;6214600;28;96424;-66
2023/11/16 00:14:18;;;;;;;;;7.00;6.00;;;;;12.68;100.00;98575.53;6184951;28;96457;-65
2023/11/16 00:17:22;;;;;;;;;7.60;7.60;;;;;12.73;100.00;98581.06;6182054;28;96770;-67
2023/11/16 00:20:26;;;;;;;;;9.00;8.00;;;;;12.70;100.00;98580.72;6202165;28;96874;-65
2023/11/16 00:23:29;;;;;;;;;7.40;6.40;;;;;12.71;100.00;98576.94;6167848;28;96869;-65
2023/11/16 00:26:33;;;;;;;;;8.00;6.75;;;;;12.76;100.00;98594.06;6182771;28;96371;-65
2023/11/16 00:29:39;;;;;;;;;8.00;8.00;;;;;12.79;100.00;98596.31;6184401;28;96651;-65
2023/11/16 00:32:42;;;;;;;;;7.60;6.60;;;;;12.81;100.00;98596.88;6176509;28;96875;-65
2023/11/16 00:35:46;;;;;;;;;8.60;8.60;;;;;12.85;100.00;98592.63;6204535;28;96630;-65
2023/11/16 00:38:49;;;;;;;;;9.25;8.00;;;;;12.83;100.00;98593.94;6169336;28;96851;-65
2023/11/16 00:41:53;;;;;;;;;8.40;7.40;;;;;12.87;100.00;98593.22;6184024;28;96748;-65
2023/11/16 00:44:58;;;;;;;;;8.00;8.00;;;;;12.86;100.00;98602.38;6201037;28;96377;-65
2023/11/16 00:48:02;;;;;;;;;8.00;8.00;;;;;12.89;100.00;98599.22;6182073;28;97465;-65
2023/11/16 00:51:07;;;;;;;;;8.00;8.00;;;;;12.93;100.00;98610.34;6196964;28;96264;-65
2023/11/16 00:54:12;;;;;;;;;8.00;8.00;;;;;12.94;100.00;98607.41;6195819;28;98948;-71
2023/11/16 00:57:17;;;;;;;;;10.00;9.00;;;;;12.88;100.00;98597.56;6204129;28;96361;-71
2023/11/16 01:00:22;;;;;;;;;10.40;10.40;;;;;12.90;100.00;98603.53;6172633;28;96992;-71
2023/11/16 01:03:26;;;;;;;;;11.00;10.00;;;;;12.94;100.00;98609.31;6186505;28;96471;-71
2023/11/16 01:06:31;;;;;;;;;10.00;9.00;;;;;12.94;100.00;98604.72;6179625;28;96340;-71
2023/11/16 01:09:35;;;;;;;;;8.75;7.00;;;;;12.90;100.00;98617.06;6171391;28;96665;-71
2023/11/16 01:12:39;;;;;;;;;12.00;11.40;;;;;12.89;100.00;98623.56;6192527;28;96364;-71
2023/11/16 01:15:44;;;;;;;;;8.00;8.00;;;;;12.90;100.00;98617.06;6170701;28;98667;-71
2023/11/16 01:18:50;;;;;;;;;9.80;9.20;;;;;12.91;100.00;98632.22;6189673;28;96539;-72
2023/11/16 01:21:57;;;;;;;;;8.60;7.60;;;;;12.90;100.00;98638.69;6188319;28;96288;-70
2023/11/16 01:25:00;;;;;;;;;10.00;9.00;;;;;12.91;100.00;98628.72;6178732;28;96778;-71
2023/11/16 01:28:04;;;;;;;;;11.75;10.00;;;;;12.93;100.00;98629.28;6177544;28;96675;-71
2023/11/16 01:31:08;;;;;;;;;11.20;10.20;;;;;12.89;100.00;98620.84;6172626;28;96878;-72
2023/11/16 01:34:14;;;;;;;;;12.00;11.20;;;;;12.88;100.00;98624.63;6206253;28;96544;-72
2023/11/16 01:37:17;;;;;;;;;12.00;11.00;;;;;12.88;100.00;98626.50;6178808;28;96747;-72
2023/11/16 01:40:20;;;;;;;;;10.00;10.00;;;;;12.83;100.00;98639.94;6191211;28;96420;-72
2023/11/16 01:43:26;;;;;;;;;10.40;10.00;;;;;12.82;100.00;98641.81;6190594;28;97009;-72
2023/11/16 01:46:33;;;;;;;;;11.00;11.00;;;;;12.80;100.00;98637.72;6177852;28;96880;-71
2023/11/16 01:49:38;;;;;;;;;10.00;9.00;;;;;12.79;100.00;98647.72;6204914;28;96374;-71
2023/11/16 01:52:42;;;;;;;;;9.80;9.00;;;;;12.78;100.00;98648.78;6181608;28;98368;-72
2023/11/16 01:55:47;;;;;;;;;10.00;8.60;;;;;12.70;100.00;98638.34;6195522;28;96303;-72
2023/11/16 01:58:52;;;;;;;;;10.20;9.80;;;;;12.66;100.00;98639.06;6178581;28;97362;-71
2023/11/16 02:01:57;;;;;;;;;9.80;9.80;;;;;12.59;100.00;98639.19;6158230;28;96541;-72
2023/11/16 02:05:02;;;;;;;;;11.80;10.80;;;;;12.57;100.00;98641.31;6193323;22;96365;-66
2023/11/16 02:08:08;;;;;;;;;10.40;10.00;;;;;12.59;100.00;98639.19;6193773;28;96868;-67
2023/11/16 02:11:12;;;;;;;;;11.40;10.40;;;;;12.53;100.00;98629.34;6175726;28;98462;-66
2023/11/16 02:14:17;;;;;;;;;11.60;11.60;;;;;12.56;100.00;98636.97;6176399;28;96509;-65
2023/11/16 02:17:23;;;;;;;;;14.00;13.00;;;;;12.62;100.00;98641.41;6175440;28;98513;-66
2023/11/16 02:20:28;;;;;;;;;12.00;11.00;;;;;12.59;100.00;98639.19;6160246;28;98614;-65
2023/11/16 02:23:34;;;;;;;;;12.00;10.00;;;;;12.57;100.00;98642.13;6158989;28;96923;-66
2023/11/16 02:26:37;;;;;;;;;11.00;10.60;;;;;12.58;100.00;98654.59;6203818;28;96104;-65
2023/11/16 02:29:40;;;;;;;;;11.00;10.00;;;;;12.54;100.00;98652.63;6176493;28;98678;-67
2023/11/16 02:32:44;;;;;;;;;14.00;13.00;;;;;12.50;100.00;98646.88;6174181;28;96526;-67
2023/11/16 02:35:48;;;;;;;;;10.60;10.00;;;;;12.47;100.00;98644.63;6191427;28;96346;-67
2023/11/16 02:38:53;;;;;;;;;14.00;13.00;;;;;12.46;100.00;98651.09;6187144;28;96411;-66
2023/11/16 02:41:56;;;;;;;;;10.00;9.50;;;;;12.48;100.00;98651.69;6192116;28;96395;-66
2023/11/16 02:44:59;;;;;;;;;12.50;11.50;;;;;12.48;100.00;98650.88;6178558;28;96411;-67
2023/11/16 02:48:04;;;;;;;;;12.40;12.00;;;;;12.46;100.00;98658.41;6175771;28;99152;-67
2023/11/16 02:51:08;;;;;;;;;13.00;11.50;;;;;12.54;100.00;98655.31;6183326;28;97030;-66
2023/11/16 02:54:13;;;;;;;;;10.60;10.60;;;;;12.53;100.00;98664.50;6184316;28;99449;-65
2023/11/16 02:57:17;;;;;;;;;10.40;9.40;;;;;12.51;100.00;98667.44;6201294;28;96955;-67
2023/11/16 03:00:21;;;;;;;;;11.80;11.00;;;;;12.49;100.00;98666.88;6191959;28;96651;-66
2023/11/16 03:03:24;;;;;;;;;13.00;12.50;;;;;12.47;100.00;98665.44;6174403;28;96684;-66
2023/11/16 03:06:27;;;;;;;;;13.60;12.00;;;;;12.49;100.00;98671.44;6174875;28;97090;-66
2023/11/16 03:09:32;;;;;;;;;12.00;12.00;;;;;12.45;100.00;98673.00;6185542;28;96533;-65
2023/11/16 03:12:37;;;;;;;;;13.00;12.00;;;;;12.46;100.00;98682.75;6174342;28;96656;-66
2023/11/16 03:15:40;;;;;;;;;13.25;13.00;;;;;12.42;100.00;98679.69;6187044;28;96382;-65
2023/11/16 03:18:44;;;;;;;;;13.00;10.00;;;;;12.42;100.00;98681.56;6167111;28;96994;-66
2023/11/16 03:21:49;;;;;;;;;12.20;9.80;;;;;12.42;100.00;98689.66;6191110;28;96392;-65
2023/11/16 03:24:53;;;;;;;;;13.00;13.00;;;;;12.32;100.00;98684.88;6190853;28;96448;-66
2023/11/16 03:27:56;;;;;;;;;12.00;11.00;;;;;12.36;100.00;98685.25;6191161;28;96399;-65
2023/11/16 03:31:00;;;;;;;;;13.00;13.00;;;;;12.27;100.00;98695.56;6153999;28;97235;-68
2023/11/16 03:34:05;;;;;;;;;11.50;11.50;;;;;12.24;100.00;98689.81;6190160;28;96310;-66
2023/11/16 03:37:09;;;;;;;;;11.60;11.00;;;;;12.24;100.00;98698.75;6191130;28;96389;-66
2023/11/16 03:40:14;;;;;;;;;11.00;10.00;;;;;12.20;100.00;98700.28;6172870;28;97540;-66
2023/11/16 03:43:18;;;;;;;;;10.60;10.60;;;;;12.08;100.00;98705.69;6173094;28;99086;-65
2023/11/16 03:46:21;;;;;;;;;12.40;11.60;;;;;12.10;100.00;98705.47;6169952;28;96676;-65
2023/11/16 03:49:25;;;;;;;;;13.00;12.00;;;;;12.10;100.00;98717.09;6189692;28;96688;-65
2023/11/16 03:52:29;;;;;;;;;12.00;11.00;;;;;11.98;100.00;98718.97;6161099;28;96886;-66
2023/11/16 03:55:33;;;;;;;;;13.25;13.00;;;;;12.00;100.00;98716.88;6178625;28;96287;-65
2023/11/16 03:58:37;;;;;;;;;13.40;12.40;;;;;11.91;100.00;98712.88;6190221;28;96456;-65
2023/11/16 04:01:40;;;;;;;;;14.00;13.40;;;;;11.95;100.00;98716.75;6189312;28;96455;-66
2023/11/16 04:04:45;;;;;;;;;11.60;11.00;;;;;11.97;100.00;98720.03;6157361;28;96778;-68
2023/11/16 04:07:49;;;;;;;;;11.00;10.00;;;;;12.02;100.00;98728.25;6188276;28;96352;-65
2023/11/16 04:10:53;;;;;;;;;11.00;10.60;;;;;12.04;100.00;98726.16;6175187;28;97341;-66
2023/11/16 04:13:57;;;;;;;;;12.20;12.20;;;;;12.15;100.00;98728.03;6192536;28;96247;-65
2023/11/16 04:17:00;;;;;;;;;11.50;10.50;;;;;12.18;100.00;98718.63;6177968;28;96499;-66
2023/11/16 04:20:07;;;;;;;;;14.00;13.00;;;;;12.19;100.00;98716.75;6176590;28;96369;-66
2023/11/16 04:23:10;;;;;;;;;13.20;13.20;;;;;12.24;100.00;98719.56;6192887;28;96442;-67
2023/11/16 04:26:17;;;;;;;;;14.00;13.00;;;;;12.24;100.00;98714.16;6153933;28;98511;-68
2023/11/16 04:29:20;;;;;;;;;13.00;11.67;;;;;12.28;100.00;98718.84;6143808;28;97337;-70
2023/11/16 04:32:26;;;;;;;;;12.00;10.00;;;;;12.33;100.00;98715.44;6158997;28;97044;-70
2023/11/16 04:35:30;;;;;;;;;13.00;13.00;;;;;12.37;100.00;98711.19;6161509;28;96748;-70
2023/11/16 04:38:34;;;;;;;;;11.00;11.00;;;;;12.20;100.00;98696.78;6162064;28;97576;-70
2023/11/16 04:41:43;;;;;;;;;11.20;10.20;;;;;12.32;100.00;98724.59;6162406;28;96944;-70
2023/11/16 04:44:46;;;;;;;;;11.00;10.60;;;;;12.28;100.00;98721.53;6121227;28;98876;-71
2023/11/16 04:47:50;;;;;;;;;11.00;10.67;;;;;12.33;100.00;98718.13;6153898;28;97737;-69
2023/11/16 04:50:55;;;;;;;;;11.40;11.40;;;;;12.32;100.00;98727.28;6143214;28;96476;-70
2023/11/16 04:53:59;;;;;;;;;13.00;11.00;;;;;12.29;100.00;98735.88;6127626;28;97349;-70
2023/11/16 04:57:04;;;;;;;;;11.40;10.00;;;;;12.29;100.00;98734.00;6160032;28;96612;-70
2023/11/16 05:00:10;;;;;;;;;10.00;9.80;;;;;12.33;100.00;98726.25;6160441;28;96637;-70
2023/11/16 05:03:14;;;;;;;;;12.00;11.00;;;;;12.30;100.00;98737.53;6136463;28;98561;-70
2023/11/16 05:06:17;;;;;;;;;11.00;11.00;;;;;12.29;100.00;98744.00;6121834;28;98442;-70
2023/11/16 05:09:21;;;;;;;;;10.00;9.40;;;;;12.29;100.00;98744.81;6115791;28;98483;-69
2023/11/16 05:12:25;;;;;;;;;12.00;11.75;;;;;12.31;100.00;98747.31;6137583;28;96424;-69
2023/11/16 05:15:29;;;;;;;;;13.25;11.75;;;;;12.28;100.00;98747.75;6138319;28;96641;-70
2023/11/16 05:18:32;;;;;;;;;13.00;13.00;;;;;12.28;100.00;98745.88;6137504;28;96594;-69
2023/11/16 05:21:36;;;;;;;;;20.00;19.60;;;;;12.30;100.00;98751.06;6139422;28;96436;-70
2023/11/16 05:24:39;;;;;;;;;12.00;12.00;;;;;12.32;100.00;98749.75;6137894;28;96970;-69
2023/11/16 05:27:44;;;;;;;;;12.50;11.50;;;;;12.32;100.00;98751.63;6110244;28;98531;-70
2023/11/16 05:30:48;;;;;;;;;12.50;12.00;;;;;12.32;100.00;98751.63;6132477;28;96982;-70
2023/11/16 05:33:53;;;;;;;;;12.80;10.80;;;;;12.27;100.00;98749.63;6136213;28;97244;-69
2023/11/16 05:36:57;;;;;;;;;11.20;11.20;;;;;12.25;100.00;98750.94;6136463;28;99538;-70
2023/11/16 05:40:03;;;;;;;;;11.00;10.00;;;;;12.23;100.00;98748.47;6136891;28;96446;-69
2023/11/16 05:43:08;;;;;;;;;13.00;12.00;;;;;12.21;100.00;98745.19;6138277;28;97252;-69
2023/11/16 05:46:11;;;;;;;;;11.00;11.00;;;;;12.18;100.00;98745.63;6102093;28;97963;-69
2023/11/16 05:49:15;;;;;;;;;14.00;12.00;;;;;12.19;100.00;98757.28;6130797;28;96646;-69
2023/11/16 05:52:18;;;;;;;;;12.20;11.20;;;;;12.19;100.00;98752.69;6128337;28;98875;-71
2023/11/16 05:55:26;;;;;;;;;9.80;9.80;;;;;12.20;100.00;98764.34;6111386;28;96910;-69
2023/11/16 05:58:30;;;;;;;;;11.25;10.00;;;;;12.25;100.00;98765.28;6118675;28;96638;-70
2023/11/16 06:01:33;;;;;;;;;13.40;12.00;;;;;12.26;100.00;98771.50;6125154;28;97922;-70
2023/11/16 06:04:37;;;;;;;;;9.00;8.00;;;;;12.23;100.00;98771.97;6132431;28;97062;-69
2023/11/16 06:07:40;;;;;;;;;10.80;10.00;;;;;12.23;100.00;98770.09;6122610;28;97209;-69
2023/11/16 06:10:44;;;;;;;;;12.00;12.00;;;;;12.28;100.00;98767.50;6149342;28;96840;-70
2023/11/16 06:13:50;;;;;;;;;14.00;13.00;;;;;12.30;100.00;98767.28;6142279;28;96822;-69
2023/11/16 06:16:54;;;;;;;;;10.00;9.40;;;;;12.29;100.00;98763.75;6162700;28;97295;-70
2023/11/16 06:19:57;;;;;;;;;11.00;11.00;;;;;12.31;100.00;98761.63;6125423;28;98610;-69
2023/11/16 06:23:02;;;;;;;;;12.40;11.00;;;;;12.31;100.00;98767.03;6147249;28;96938;-70
2023/11/16 06:26:06;;;;;;;;;13.20;12.20;;;;;12.32;100.00;98768.66;6161557;28;97560;-71
2023/11/16 06:29:10;;;;;;;;;11.00;11.00;;;;;12.31;100.00;98763.53;6143056;28;97268;-69
2023/11/16 06:32:14;;;;;;;;;12.00;12.00;;;;;12.31;100.00;98761.63;6168093;28;96679;-69
2023/11/16 06:35:17;;;;;;;;;11.40;10.60;;;;;12.32;100.00;98762.44;6158321;28;96757;-70
2023/11/16 06:38:20;;;;;;;;;11.40;10.40;;;;;12.31;100.00;98766.22;6143415;28;97004;-70
2023/11/16 06:41:24;;;;;;;;;10.60;10.60;;;;;12.25;100.00;98765.28;6161017;28;96569;-70
2023/11/16 06:44:29;;;;;;;;;11.00;11.00;;;;;12.31;100.00;98768.94;6142456;28;96533;-67
2023/11/16 06:47:33;;;;;;;;;11.40;11.00;;;;;12.35;100.00;98765.50;6149479;28;98523;-66
2023/11/16 06:50:38;;;;;;;;;12.40;11.00;;;;;12.37;100.00;98762.56;6165415;28;96323;-67
2023/11/16 06:53:42;;;;;;;;;11.00;10.00;;;;;12.38;100.00;98764.22;6165777;28;96299;-67
2023/11/16 06:56:49;;;;;;;;;13.00;12.00;;;;;12.29;100.00;98749.41;6148291;28;96709;-67
2023/11/16 06:59:54;;;;;;;;;10.00;10.00;;;;;12.41;100.00;98764.53;6188490;28;96907;-67
2023/11/16 07:02:58;;;;;;;;;9.40;8.00;;;;;12.39;100.00;98758.56;6189696;28;96972;-67
2023/11/16 07:06:02;;;;;;;;;9.00;9.00;;;;;12.42;100.00;98754.56;6190076;28;96330;-67
2023/11/16 07:09:06;;;;;;;;;11.00;10.50;;;;;12.48;100.00;98754.44;6188830;28;96329;-67
2023/11/16 07:12:10;;;;;;;;;9.00;8.75;;;;;12.50;100.00;98755.03;6185366;28;96216;-67
2023/11/16 07:15:15;;;;;;;;;9.00;9.00;;;;;12.56;100.00;98761.34;6148230;28;96822;-67
2023/11/16 07:18:19;;;;;;;;;10.00;9.00;;;;;12.62;100.00;98760.41;6148013;28;96783;-67
2023/11/16 07:21:23;;;;;;;;;11.20;11.00;;;;;12.65;100.00;98761.84;6169256;28;96142;-67
2023/11/16 07:24:28;;;;;;;;;11.00;10.50;;;;;12.70;100.00;98770.88;6151962;28;98456;-67
2023/11/16 07:27:32;;;;;;;;;10.00;9.00;;;;;12.72;100.00;98765.22;6179095;28;96288;-66
2023/11/16 07:30:36;;;;;;;;;8.00;8.00;;;;;12.69;100.00;98766.53;6161416;28;96330;-67
2023/11/16 07:33:40;;;;;;;;;6.50;6.50;;;;;12.67;100.00;98774.03;6160666;28;96541;-67
2023/11/16 07:36:43;;;;;;;;;6.00;6.00;;;;;12.77;100.00;98768.84;6172718;28;96344;-67
2023/11/16 07:39:46;;;;;;;;;8.00;7.00;;;;;12.82;100.00;98774.38;6174333;28;97355;-67
2023/11/16 07:42:50;;;;;;;;;6.80;5.80;;;;;12.94;100.00;98771.66;6176036;28;96867;-67
2023/11/16 07:45:54;;;;;;;;;6.75;6.00;;;;;12.99;100.00;98769.88;6169668;28;96365;-68
2023/11/16 07:48:58;;;;;;;;;7.80;7.80;;;;;13.05;100.00;98757.25;6152717;28;98573;-67
2023/11/16 07:52:01;;;;;;;;;8.00;8.00;;;;;13.16;100.00;98752.88;6136545;28;98399;-67
2023/11/16 07:55:06;;;;;;;;;7.00;7.00;;;;;13.22;100.00;98760.03;6168876;28;96332;-65
2023/11/16 07:58:13;;;;;;;;;6.00;5.00;;;;;13.27;100.00;98760.97;6142964;28;96310;-66
2023/11/16 08:01:21;;;;;;;;;4.20;4.20;;;;;13.31;100.00;98769.41;6152454;28;96270;-65
2023/11/16 08:04:25;;;;;;;;;7.00;6.00;;;;;13.31;100.00;98775.66;6171182;28;96386;-65
2023/11/16 08:07:29;;;;;;;;;5.00;5.00;;;;;13.37;100.00;98790.13;6199023;28;98642;-65
2023/11/16 08:10:32;;;;;;;;;5.00;5.00;;;;;13.43;100.00;98791.88;6199380;28;98542;-65
2023/11/16 08:13:36;;;;;;;;;7.00;6.80;;;;;13.37;100.00;98790.94;6210932;28;96819;-65
2023/11/16 08:16:41;;;;;;;;;4.60;4.60;;;;;13.38;100.00;98780.94;6185636;28;96487;-70
2023/11/16 08:19:44;;;;;;;;;4.00;4.00;;;;;13.40;100.00;98782.31;6168937;28;96319;-67
2023/11/16 08:22:48;;;;;;;;;4.40;4.40;;;;;13.43;100.00;98773.72;6167493;28;96265;-67
2023/11/16 08:25:52;;;;;;;;;5.50;5.50;;;;;13.39;100.00;98779.84;6168120;28;96647;-67
2023/11/16 08:28:55;;;;;;;;;4.60;4.00;;;;;13.36;100.00;98770.34;6151787;28;97060;-67
2023/11/16 08:32:00;;;;;;;;;3.00;3.00;;;;;13.40;100.00;98778.78;6150053;28;96480;-67
2023/11/16 08:35:04;;;;;;;;;5.00;4.40;;;;;13.45;100.00;98774.28;6169271;28;96539;-68
2023/11/16 08:38:14;;;;;;;;;4.20;4.00;;;;;13.45;100.00;98758.06;6169170;28;96352;-66
2023/11/16 08:41:17;;;;;;;;;5.00;5.00;;;;;13.50;100.00;98770.84;6151194;28;98465;-67
2023/11/16 08:44:22;;;;;;;;;8.00;8.00;;;;;13.52;100.00;98766.03;6169164;28;96322;-67
2023/11/16 08:47:28;;;;;;;;;6.00;6.00;;;;;13.53;100.00;98770.38;6167489;28;96729;-68
2023/11/16 08:50:33;;;;;;;;;7.00;6.40;;;;;13.57;100.00;98768.00;6168497;28;96551;-67
2023/11/16 08:53:39;;;;;;;;;7.00;7.00;;;;;13.59;100.00;98763.97;6169193;28;96633;-67
2023/11/16 08:56:43;;;;;;;;;4.60;4.60;;;;;13.64;100.00;98755.13;6134140;28;96711;-67
2023/11/16 09:00:25;;;;;;;;;7.00;6.00;;;;;13.65;100.00;98757.59;6151547;28;96354;-68
2023/11/16 09:03:27;;;;;;;;;7.00;6.80;;;;;13.72;100.00;98762.84;6167889;28;96506;-66
2023/11/16 09:06:31;;;;;;;;;6.60;5.60;;;;;13.71;100.00;98764.75;6167688;28;96365;-67
2023/11/16 09:09:35;;;;;;;;;5.50;5.00;;;;;13.69;100.00;98763.34;6143395;28;96254;-67
2023/11/16 09:12:41;;;;;;;;;7.00;6.00;;;;;13.78;100.00;98759.19;6141464;28;96281;-67
2023/11/16 09:15:45;;;;;;;;;6.00;6.00;;;;;13.85;100.00;98752.53;6143290;28;96403;-67
2023/11/16 09:18:49;;;;;;;;;5.00;5.00;;;;;13.89;100.00;98742.81;6143985;28;96390;-67
2023/11/16 09:21:54;;;;;;;;;5.00;5.00;;;;;13.94;100.00;98746.69;6143484;28;96446;-66
2023/11/16 09:25:00;;;;;;;;;8.80;8.00;;;;;13.96;100.00;98745.38;6143540;28;96309;-67
2023/11/16 09:28:06;;;;;;;;;7.75;7.00;;;;;14.09;100.00;98744.22;6125991;28;98482;-66
2023/11/16 09:31:11;;;;;;;;;6.00;6.00;;;;;14.38;100.00;98750.34;6126519;28;98453;-67
2023/11/16 09:34:17;;;;;;;;;5.00;5.00;;;;;14.57;100.00;98759.84;6143642;28;96311;-67
2023/11/16 09:37:20;;;;;;;;;6.40;6.00;;;;;14.67;100.00;98751.84;6125195;28;96947;-66
2023/11/16 09:40:28;;;;;;;;;6.00;5.60;;;;;14.79;100.00;98758.00;6127553;28;98511;-67
2023/11/16 09:43:37;;;;;;;;;6.00;6.00;;;;;14.84;100.00;98746.38;6146143;28;96293;-68
2023/11/16 09:46:44;;;;;;;;;6.80;5.80;;;;;14.89;100.00;98741.03;6145857;28;96945;-67
2023/11/16 09:49:52;;;;;;;;;11.00;8.00;;;;;14.80;100.00;98735.22;6168415;28;96323;-67
2023/11/16 09:52:57;;;;;;;;;7.00;5.00;;;;;14.94;100.00;98733.75;6169218;28;96466;-67
2023/11/16 09:56:03;;;;;;;;;5.00;5.00;;;;;15.20;100.00;98725.91;6169419;28;96309;-67
2023/11/16 09:59:13;;;;;;;;;5.40;5.00;;;;;15.32;100.00;98718.41;6169947;28;96181;-67
2023/11/16 10:02:23;;;;;;;;;6.00;6.00;;;;;15.29;100.00;98718.94;6170175;28;96306;-67
2023/11/16 10:05:34;;;;;;;;;5.00;4.00;;;;;15.13;100.00;98696.22;6167922;28;97002;-67
2023/11/16 10:08:40;;;;;;;;;3.80;3.80;;;;;15.27;100.00;98712.94;6150870;28;96956;-67
2023/11/16 10:11:44;;;;;;;;;4.60;4.00;;;;;15.20;100.00;98706.91;6150172;28;98709;-67
2023/11/16 10:14:51;;;;;;;;;4.00;4.00;;;;;15.06;100.00;98709.16;6169368;28;96339;-66
2023/11/16 10:17:56;;;;;;;;;5.00;5.00;;;;;15.04;100.00;98704.00;6170778;28;96392;-66
2023/11/16 10:21:02;;;;;;;;;6.40;5.00;;;;;14.97;100.00;98706.09;6171251;28;96283;-66
2023/11/16 10:24:08;;;;;;;;;5.00;4.60;;;;;14.86;100.00;98700.78;6138014;28;96828;-67
2023/11/16 10:27:12;;;;;;;;;4.00;4.00;;;;;14.85;100.00;98702.72;6113223;28;98697;-67
2023/11/16 10:30:15;;;;;;;;;5.00;5.00;;;;;14.87;100.00;98705.16;6167577;28;96336;-67
2023/11/16 10:33:20;;;;;;;;;7.00;7.00;;;;;14.95;100.00;98694.69;6153456;28;99188;-67
2023/11/16 10:36:26;;;;;;;;;6.25;5.00;;;;;14.96;100.00;98690.06;6172469;28;96213;-67
2023/11/16 10:39:29;;;;;;;;;7.40;7.40;;;;;15.03;100.00;98687.97;6155237;28;99134;-67
2023/11/16 10:42:34;;;;;;;;;6.00;5.00;;;;;15.03;100.00;98677.13;6154318;28;96751;-67
2023/11/16 10:45:42;;;;;;;;;6.00;6.00;;;;;15.01;100.00;98682.78;6159176;28;96582;-67
2023/11/16 10:48:48;;;;;;;;;6.00;5.00;;;;;14.98;100.00;98677.88;6128242;28;97238;-67
2023/11/16 10:51:54;;;;;;;;;6.00;5.00;;;;;15.09;100.00;98667.94;6148800;28;96754;-66
2023/11/16 10:55:04;;;;;;;;;6.40;6.40;;;;;15.13;100.00;98658.22;6130011;28;96675;-67
2023/11/16 10:58:11;;;;;;;;;6.20;6.20;;;;;15.36;100.00;98648.91;6165479;28;96347;-67
2023/11/16 11:01:17;;;;;;;;;8.50;8.00;;;;;15.53;100.00;98639.59;6171969;28;96943;-67
2023/11/16 11:04:22;;;;;;;;;6.60;6.60;;;;;15.96;100.00;98646.69;6174221;28;96309;-66
2023/11/16 11:07:27;;;;;;;;;7.40;7.40;;;;;16.46;100.00;98648.06;6151051;28;96576;-66
2023/11/16 11:10:33;;;;;;;;;7.00;7.00;;;;;16.78;100.00;98629.69;6117726;28;98442;-67
2023/11/16 11:13:37;;;;;;;;;6.60;6.00;;;;;17.02;100.00;98637.38;6142298;28;98473;-67
2023/11/16 11:16:40;;;;;;;;;5.60;5.60;;;;;17.09;100.00;98643.38;6176329;28;96421;-67
2023/11/16 11:19:55;;;;;;;;;5.00;5.00;;;;;16.84;100.00;98628.63;6155594;28;96308;-67
2023/11/16 11:23:06;;;;;;;;;5.00;5.00;;;;;16.82;100.00;98640.88;6169686;28;96468;-66
2023/11/16 11:26:13;;;;;;;;;6.00;5.00;;;;;16.58;100.00;98645.09;6168077;28;96341;-67
2023/11/16 11:29:17;;;;;;;;;6.00;5.00;;;;;16.45;100.00;98640.97;6166734;28;96845;-67
2023/11/16 11:32:28;;;;;;;;;11.00;9.00;;;;;16.26;100.00;98642.53;6167245;28;96885;-66
2023/11/16 11:35:35;;;;;;;;;7.00;7.00;;;;;16.12;100.00;98638.63;6166437;28;96311;-67
2023/11/16 11:38:42;;;;;;;;;8.00;8.00;;;;;16.11;100.00;98631.56;6148517;28;96768;-67
2023/11/16 11:41:59;;;;;;;;;7.00;7.00;;;;;16.19;100.00;98631.88;6121721;28;96410;-67
2023/11/16 11:45:04;;;;;;;;;7.40;6.40;;;;;16.39;100.00;98626.53;6124195;28;96684;-66
2023/11/16 11:48:08;;;;;;;;;6.50;6.00;;;;;16.62;100.00;98621.72;6123502;28;98490;-67
2023/11/16 11:51:12;;;;;;;;;6.00;5.00;;;;;16.84;100.00;98616.91;6142726;28;96893;-67
2023/11/16 11:54:16;;;;;;;;;5.00;5.00;;;;;17.05;100.00;98613.16;6128070;28;96376;-67
2023/11/16 11:57:19;;;;;;;;;6.00;5.00;;;;;17.04;100.00;98611.53;6148186;28;96763;-67
2023/11/16 12:00:46;;;;;;;;;5.00;5.00;;;;;16.92;100.00;98604.66;6163191;28;96413;-67
2023/11/16 12:03:50;;;;;;;;;6.20;5.00;;;;;16.82;100.00;98600.03;6124152;28;97429;-67
2023/11/16 12:06:55;;;;;;;;;6.40;6.00;;;;;16.64;100.00;98576.03;6138729;28;96953;-68
2023/11/16 12:10:04;;;;;;;;;6.00;5.25;;;;;16.73;100.00;98598.91;6144737;28;96796;-66
2023/11/16 12:13:08;;;;;;;;;6.00;6.00;;;;;16.72;100.00;98589.09;6146245;28;96319;-67
2023/11/16 12:16:15;;;;;;;;;5.00;5.00;;;;;16.71;100.00;98591.00;6144229;28;99059;-66
2023/11/16 12:19:22;;;;;;;;;5.00;5.00;;;;;16.61;100.00;98582.84;6127443;28;96850;-67
2023/11/16 12:22:26;;;;;;;;;4.00;4.00;;;;;16.46;100.00;98577.31;6136589;28;98868;-67
2023/11/16 12:25:31;;;;;;;;;4.00;4.00;;;;;16.46;100.00;98563.72;6119733;28;97043;-68
2023/11/16 12:28:34;;;;;;;;;5.00;4.00;;;;;16.34;100.00;98544.88;6119695;28;96921;-67
2023/11/16 12:31:38;;;;;;;;;5.00;4.00;;;;;16.58;100.00;98558.00;6120041;28;96294;-68
2023/11/16 12:34:42;;;;;;;;;6.00;5.40;;;;;16.61;100.00;98565.69;6122547;28;96345;-67
2023/11/16 12:37:46;;;;;;;;;4.00;4.00;;;;;16.62;100.00;98554.53;6134567;28;96000;-67
2023/11/16 12:40:59;;;;;;;;;3.00;3.00;;;;;16.54;100.00;98535.16;6139206;28;96694;-67
2023/11/16 12:44:06;;;;;;;;;6.00;6.00;;;;;16.49;100.00;98538.69;6158286;28;98507;-66
2023/11/16 12:47:09;;;;;;;;;4.20;4.20;;;;;16.47;100.00;98538.13;6159546;28;96693;-66
2023/11/16 12:50:24;;;;;;;;;5.50;5.50;;;;;16.36;100.00;98526.41;6175272;28;98601;-66
2023/11/16 12:53:29;;;;;;;;;5.80;5.80;;;;;16.29;100.00;98522.28;6158168;28;96275;-67
2023/11/16 12:56:37;;;;;;;;;5.00;4.00;;;;;16.27;100.00;98528.00;6140737;28;96703;-67
2023/11/16 12:59:41;;;;;;;;;4.00;4.00;;;;;16.27;100.00;98532.63;6158314;28;98424;-67
2023/11/16 13:02:45;;;;;;;;;6.00;6.00;;;;;16.19;100.00;98517.63;6159587;28;96897;-68
2023/11/16 13:05:48;;;;;;;;;6.00;5.75;;;;;16.26;100.00;98529.09;6142148;28;98433;-67
2023/11/16 13:08:52;;;;;;;;;6.00;6.00;;;;;16.33;100.00;98516.03;6161770;28;96350;-66
2023/11/16 13:11:57;;;;;;;;;6.50;6.50;;;;;16.64;100.00;98524.31;6143167;28;96549;-67
2023/11/16 13:15:17;;;;;;;;;6.00;5.00;;;;;16.84;100.00;98522.44;6159595;28;96309;-66
2023/11/16 13:18:20;;;;;;;;;5.00;5.00;;;;;17.37;100.00;98522.97;6144293;28;96794;-67
2023/11/16 13:21:26;;;;;;;;;7.60;6.60;;;;;17.79;100.00;98511.72;6131386;28;96689;-66
2023/11/16 13:24:30;;;;;;;;;7.00;6.00;;;;;18.07;100.00;98502.94;6146009;28;98716;-67
2023/11/16 13:27:57;;;;;;;;;6.20;5.00;;;;;18.33;100.00;98503.59;6139124;28;96390;-68
2023/11/16 13:31:02;;;;;;;;;6.00;5.40;;;;;18.19;100.00;98519.78;6156622;28;96319;-66
2023/11/16 13:34:05;;;;;;;;;6.00;5.00;;;;;17.92;100.00;98513.91;6155954;28;96777;-66
2023/11/16 13:37:11;;;;;;;;;4.00;4.00;;;;;17.49;100.00;98503.63;6156219;28;96268;-68
2023/11/16 13:40:17;;;;;;;;;6.00;5.40;;;;;17.22;100.00;98504.75;6156170;28;96482;-67
2023/11/16 13:43:24;;;;;;;;;5.60;5.60;;;;;17.01;100.00;98500.38;6138969;28;98200;-67
2023/11/16 13:46:30;;;;;;;;;8.00;7.00;;;;;16.86;100.00;98497.66;6128991;28;98512;-67
2023/11/16 13:49:43;;;;;;;;;7.00;6.00;;;;;16.72;100.00;98494.66;6143551;28;96301;-67
2023/11/16 13:52:49;;;;;;;;;6.00;5.00;;;;;16.61;100.00;98487.59;6126548;28;96403;-68
2023/11/16 13:55:52;;;;;;;;;8.00;8.00;;;;;16.40;100.00;98483.97;6112916;28;98532;-67
2023/11/16 13:59:00;;;;;;;;;7.60;7.40;;;;;16.31;100.00;98480.16;6116508;28;97004;-67
2023/11/16 14:02:07;;;;;;;;;7.00;7.00;;;;;16.21;100.00;98482.84;6142204;28;96467;-67
2023/11/16 14:05:16;;;;;;;;;7.00;7.00;;;;;16.12;100.00;98480.91;6161886;28;96646;-67
2023/11/16 14:08:20;;;;;;;;;5.00;5.00;;;;;16.02;100.00;98476.25;6166939;28;96326;-68
2023/11/16 14:11:24;;;;;;;;;5.00;5.00;;;;;15.94;100.00;98460.44;6164365;28;96319;-67
2023/11/16 14:14:32;;;;;;;;;6.40;6.00;;;;;15.91;100.00;98471.84;6168268;28;96176;-67